Time,TemperatureF,DewpointF,PressureIn,WindDirection,WindDirectionDegrees,WindSpeedMPH,WindSpeedGustMPH,Humidity,HourlyPrecipIn,Conditions,Clouds,dailyrainin,SolarRadiationWatts/m^2,SoftwareType,DateUTC
2013-07-29 00:02:00,73.0,73.0,29.58,North,11,0.0,3.0,100,0.00,,,0.01,0.000000,,2013-07-29 04:02:00,
2013-07-29 00:12:00,73.0,73.0,29.58,North,11,0.0,3.0,100,0.00,,,0.01,0.000000,,2013-07-29 04:12:00,
2013-07-29 00:43:00,71.0,71.0,29.61,WNW,284,3.0,19.0,100,0.12,,,0.13,0.000000,,2013-07-29 04:43:00,
2013-07-29 00:53:00,71.0,71.0,29.61,WNW,284,3.0,19.0,100,0.12,,,0.13,0.000000,,2013-07-29 04:53:00,
2013-07-29 01:02:00,71.0,71.0,29.61,WNW,284,3.0,19.0,100,0.12,,,0.13,0.000000,,2013-07-29 05:02:00,
2013-07-29 01:12:00,71.0,71.0,29.61,WNW,284,3.0,19.0,100,0.12,,,0.13,0.000000,,2013-07-29 05:12:00,
2013-07-29 01:43:00,70.0,70.0,29.60,SW,214,3.0,11.0,100,0.14,,,0.27,0.000000,,2013-07-29 05:43:00,
2013-07-29 01:53:00,70.0,70.0,29.60,SW,214,3.0,11.0,100,0.14,,,0.27,0.000000,,2013-07-29 05:53:00,
2013-07-29 02:02:00,70.0,70.0,29.60,SW,214,3.0,11.0,100,0.14,,,0.27,0.000000,,2013-07-29 06:02:00,
2013-07-29 02:12:00,70.0,70.0,29.60,SW,214,3.0,11.0,100,0.14,,,0.27,0.000000,,2013-07-29 06:12:00,
2013-07-29 02:43:00,71.0,71.0,29.59,WSW,242,4.0,8.0,100,0.00,,,0.27,0.000000,,2013-07-29 06:43:00,
2013-07-29 02:52:00,71.0,71.0,29.59,WSW,242,4.0,8.0,100,0.00,,,0.27,0.000000,,2013-07-29 06:52:00,
2013-07-29 03:03:00,71.0,71.0,29.59,WSW,242,4.0,8.0,100,0.00,,,0.27,0.000000,,2013-07-29 07:03:00,
2013-07-29 03:12:00,71.0,71.0,29.59,WSW,242,4.0,8.0,100,0.00,,,0.27,0.000000,,2013-07-29 07:12:00,
2013-07-29 03:43:00,69.0,69.0,29.60,WNW,303,5.0,9.0,100,0.01,,,-99.99,0.000000,,2013-07-29 07:43:00,
2013-07-29 03:53:00,69.0,69.0,29.60,WNW,303,5.0,9.0,100,0.01,,,-99.99,0.000000,,2013-07-29 07:53:00,
2013-07-29 04:02:00,69.0,69.0,29.60,WNW,303,5.0,9.0,100,0.01,,,-99.99,0.000000,,2013-07-29 08:02:00,
2013-07-29 04:12:00,69.0,69.0,29.60,WNW,303,5.0,9.0,100,0.01,,,-99.99,0.000000,,2013-07-29 08:12:00,
2013-07-29 04:42:00,70.0,70.0,29.60,WNW,292,2.0,11.0,100,0.00,,,0.28,0.000000,,2013-07-29 08:42:00,
2013-07-29 04:52:00,70.0,70.0,29.60,WNW,292,2.0,11.0,100,0.00,,,0.28,0.000000,,2013-07-29 08:52:00,
2013-07-29 05:02:00,70.0,70.0,29.60,WNW,292,2.0,11.0,100,0.00,,,0.28,0.000000,,2013-07-29 09:02:00,
2013-07-29 05:12:00,70.0,70.0,29.60,WNW,292,2.0,11.0,100,0.00,,,0.28,0.000000,,2013-07-29 09:12:00,
2013-07-29 05:43:00,69.0,69.0,29.62,NNW,337,1.0,5.0,100,0.00,,,0.28,0.000000,,2013-07-29 09:43:00,
2013-07-29 05:53:00,69.0,69.0,29.62,NNW,337,1.0,5.0,100,0.00,,,0.28,0.000000,,2013-07-29 09:53:00,
2013-07-29 06:05:00,69.0,69.0,29.62,NNW,337,1.0,5.0,100,0.00,,,0.28,0.000000,,2013-07-29 10:05:00,
2013-07-29 06:14:00,69.0,69.0,29.62,NNW,337,1.0,5.0,100,0.00,,,0.28,0.000000,,2013-07-29 10:14:00,
2013-07-29 06:50:00,66.0,66.0,29.63,NW,311,2.0,4.0,100,0.00,,,0.28,0.000000,,2013-07-29 10:50:00,
2013-07-29 06:56:00,66.0,66.0,29.63,NW,311,2.0,4.0,100,0.00,,,0.28,0.000000,,2013-07-29 10:56:00,
2013-07-29 07:07:00,66.0,66.0,29.63,NW,311,2.0,4.0,100,0.00,,,0.28,0.000000,,2013-07-29 11:07:00,
2013-07-29 07:16:00,67.0,67.0,29.66,NNW,348,3.0,7.0,100,0.00,,,-99.99,31.000000,,2013-07-29 11:16:00,
2013-07-29 07:49:00,67.0,67.0,29.66,NNW,348,3.0,7.0,100,0.00,,,-99.99,31.000000,,2013-07-29 11:49:00,
2013-07-29 07:59:00,67.0,67.0,29.66,NNW,348,3.0,7.0,100,0.00,,,-99.99,31.000000,,2013-07-29 11:59:00,
2013-07-29 08:11:00,67.0,67.0,29.66,NNW,348,3.0,7.0,100,0.00,,,-99.99,31.000000,,2013-07-29 12:11:00,
2013-07-29 08:16:00,73.0,71.0,29.67,NNW,340,5.0,10.0,95,0.00,,,0.28,182.000000,,2013-07-29 12:16:00,
2013-07-29 08:49:00,73.0,71.0,29.67,NNW,340,5.0,10.0,95,0.00,,,0.28,182.000000,,2013-07-29 12:49:00,
2013-07-29 08:58:00,73.0,71.0,29.67,NNW,340,5.0,10.0,95,0.00,,,0.28,182.000000,,2013-07-29 12:58:00,
2013-07-29 09:04:00,73.0,71.0,29.67,NNW,340,5.0,10.0,95,0.00,,,0.28,182.000000,,2013-07-29 13:04:00,
2013-07-29 09:57:00,77.0,70.0,29.68,North,357,6.0,11.0,79,0.00,,,0.28,364.000000,,2013-07-29 13:57:00,
2013-07-29 10:07:00,77.0,70.0,29.68,North,357,6.0,11.0,79,0.00,,,0.28,364.000000,,2013-07-29 14:07:00,
2013-07-29 10:16:00,77.0,66.0,29.69,North,2,7.0,13.0,69,0.00,,,0.28,559.000000,,2013-07-29 14:16:00,
2013-07-29 10:48:00,77.0,66.0,29.69,North,2,7.0,13.0,69,0.00,,,0.28,559.000000,,2013-07-29 14:48:00,
2013-07-29 10:58:00,77.0,66.0,29.69,North,2,7.0,13.0,69,0.00,,,0.28,559.000000,,2013-07-29 14:58:00,
2013-07-29 11:10:00,77.0,66.0,29.69,North,2,7.0,13.0,69,0.00,,,0.28,559.000000,,2013-07-29 15:10:00,
2013-07-29 11:46:00,81.0,68.0,29.71,NNW,345,6.0,13.0,65,0.00,,,0.27,727.000000,,2013-07-29 15:46:00,
2013-07-29 11:57:00,81.0,68.0,29.71,NNW,345,6.0,13.0,65,0.00,,,0.27,727.000000,,2013-07-29 15:57:00,
2013-07-29 12:08:00,81.0,68.0,29.71,NNW,345,6.0,13.0,65,0.00,,,0.27,727.000000,,2013-07-29 16:08:00,
2013-07-29 12:14:00,81.0,68.0,29.71,NNW,345,6.0,13.0,65,0.00,,,0.27,727.000000,,2013-07-29 16:14:00,
2013-07-29 13:14:00,82.0,64.0,29.71,NE,41,6.0,13.0,54,0.00,,,0.27,828.000000,,2013-07-29 17:14:00,
2013-07-29 13:45:00,82.0,63.0,29.71,NNE,12,5.0,11.0,52,0.00,,,0.27,670.000000,,2013-07-29 17:45:00,
2013-07-29 14:00:00,82.0,63.0,29.71,NNE,12,5.0,11.0,52,0.00,,,0.27,670.000000,,2013-07-29 18:00:00,
2013-07-29 14:07:00,82.0,63.0,29.71,NNE,12,5.0,11.0,52,0.00,,,0.27,670.000000,,2013-07-29 18:07:00,
2013-07-29 14:16:00,84.0,63.0,29.69,North,351,4.0,10.0,49,0.00,,,0.27,289.000000,,2013-07-29 18:16:00,
2013-07-29 14:48:00,84.0,63.0,29.69,North,351,4.0,10.0,49,0.00,,,0.27,289.000000,,2013-07-29 18:48:00,
2013-07-29 15:00:00,84.0,63.0,29.69,North,351,4.0,10.0,49,0.00,,,0.27,289.000000,,2013-07-29 19:00:00,
2013-07-29 15:48:00,86.0,63.0,29.67,North,9,4.0,10.0,47,0.00,,,0.27,876.000000,,2013-07-29 19:48:00,
2013-07-29 16:00:00,86.0,63.0,29.67,North,9,4.0,10.0,47,0.00,,,0.27,876.000000,,2013-07-29 20:00:00,
2013-07-29 16:08:00,86.0,63.0,29.67,North,9,4.0,10.0,47,0.00,,,0.27,876.000000,,2013-07-29 20:08:00,
2013-07-29 16:16:00,86.0,63.0,29.66,North,353,3.0,12.0,46,0.00,,,0.27,790.000000,,2013-07-29 20:16:00,
2013-07-29 16:49:00,86.0,63.0,29.66,North,353,3.0,12.0,46,0.00,,,0.27,790.000000,,2013-07-29 20:49:00,
2013-07-29 17:08:00,86.0,63.0,29.66,North,353,3.0,12.0,46,0.00,,,0.27,790.000000,,2013-07-29 21:08:00,
2013-07-29 17:16:00,86.0,63.0,29.69,NW,307,4.0,9.0,46,0.00,,,0.27,647.000000,,2013-07-29 21:16:00,
2013-07-29 18:00:00,86.0,63.0,29.69,NW,307,4.0,9.0,46,0.00,,,0.27,647.000000,,2013-07-29 22:00:00,
2013-07-29 18:05:00,86.0,63.0,29.69,NW,307,4.0,9.0,46,0.00,,,0.27,647.000000,,2013-07-29 22:05:00,
2013-07-29 18:48:00,86.0,62.0,29.69,NW,319,3.0,5.0,45,0.00,,,0.27,468.000000,,2013-07-29 22:48:00,
2013-07-29 18:57:00,86.0,62.0,29.69,NW,319,3.0,5.0,45,0.00,,,0.27,468.000000,,2013-07-29 22:57:00,
2013-07-29 19:06:00,86.0,62.0,29.69,NW,319,3.0,5.0,45,0.00,,,0.27,468.000000,,2013-07-29 23:06:00,
2013-07-29 19:16:00,80.0,67.0,29.70,NNW,346,3.0,5.0,64,0.00,,,0.27,261.000000,,2013-07-29 23:16:00,
2013-07-29 19:48:00,80.0,67.0,29.70,NNW,346,3.0,5.0,64,0.00,,,0.27,261.000000,,2013-07-29 23:48:00,
2013-07-29 19:59:00,80.0,67.0,29.70,NNW,346,3.0,5.0,64,0.00,,,0.27,261.000000,,2013-07-29 23:59:00,
2013-07-29 20:08:00,80.0,67.0,29.70,NNW,346,3.0,5.0,64,0.00,,,0.27,261.000000,,2013-07-30 00:08:00,
2013-07-29 20:16:00,71.0,69.0,29.71,North,4,4.0,6.0,92,0.00,,,0.27,65.000000,,2013-07-30 00:16:00,
2013-07-29 20:52:00,71.0,69.0,29.71,North,4,4.0,6.0,92,0.00,,,0.27,65.000000,,2013-07-30 00:52:00,
2013-07-29 20:58:00,71.0,69.0,29.71,North,4,4.0,6.0,92,0.00,,,0.27,65.000000,,2013-07-30 00:58:00,
2013-07-29 21:47:00,69.0,69.0,29.73,NNW,334,4.0,6.0,100,0.00,,,0.27,0.000000,,2013-07-30 01:47:00,
2013-07-29 22:02:00,69.0,69.0,29.73,NNW,334,4.0,6.0,100,0.00,,,0.27,0.000000,,2013-07-30 02:02:00,
2013-07-29 22:07:00,69.0,69.0,29.73,NNW,334,4.0,6.0,100,0.00,,,0.27,0.000000,,2013-07-30 02:07:00,
2013-07-29 22:15:00,69.0,69.0,29.73,NNW,334,4.0,6.0,100,0.00,,,0.27,0.000000,,2013-07-30 02:15:00,
2013-07-29 22:16:00,68.0,68.0,29.74,NNW,333,4.0,6.0,100,0.00,,,0.27,0.000000,,2013-07-30 02:16:00,
2013-07-29 22:47:00,68.0,68.0,29.74,NNW,333,4.0,6.0,100,0.00,,,0.27,0.000000,,2013-07-30 02:47:00,
2013-07-29 22:57:00,68.0,68.0,29.74,NNW,333,4.0,6.0,100,0.00,,,0.27,0.000000,,2013-07-30 02:57:00,
2013-07-29 23:09:00,68.0,68.0,29.74,NNW,333,4.0,6.0,100,0.00,,,0.27,0.000000,,2013-07-30 03:09:00,
2013-07-29 23:49:00,66.0,66.0,29.75,NNW,337,3.0,6.0,100,0.00,,,0.27,0.000000,,2013-07-30 03:49:00,